| time (UTC) | temp C | wind direction | speed KPH | gust KPH | rain 1hr cm | rain 24hr cm | rain mn cm | humidity % | barometer mb |
| 20260506134548 | 11 | 39 | 3.2 | 14.5 | 0.08 | 0.15 | 0.08 | 65 | 1011.9 |
| 20260506133049 | 12 | 228 | 6.4 | 17.7 | 0.03 | 0.08 | 0.03 | 57 | 1011.6 |
| 20260506131551 | 12 | 231 | 1.6 | 6.4 | 0.03 | 0.08 | 0.03 | 66 | 1011.5 |
| 20260506130052 | 13 | 280 | 6.4 | 22.5 | 0.00 | 0.05 | 0.00 | 56 | 1011.7 |
| 20260506124546 | 15 | 234 | 8.0 | 19.3 | 0.00 | 0.05 | 0.00 | 48 | 1011.5 |
| 20260506123051 | 13 | 215 | 6.4 | 14.5 | 0.00 | 0.05 | 0.00 | 49 | 1011.3 |
| 20260506121549 | 13 | 204 | 8.0 | 17.7 | 0.00 | 0.05 | 0.00 | 49 | 1011.5 |
| 20260506120109 | 13 | 216 | 8.0 | 19.3 | 0.00 | 0.05 | 0.00 | 49 | 1011.4 |
| 20260506114553 | 13 | 265 | 6.4 | 14.5 | 0.00 | 0.05 | 0.00 | 47 | 1011.5 |
| 20260506113053 | 14 | 338 | 6.4 | 22.5 | 0.00 | 0.05 | 0.00 | 47 | 1011.6 |
| 20260506111551 | 13 | 228 | 6.4 | 19.3 | 0.00 | 0.05 | 0.00 | 49 | 1011.7 |
| 20260506110100 | 13 | 306 | 8.0 | 16.1 | 0.00 | 0.05 | 0.00 | 50 | 1011.9 |
| 20260506104550 | 13 | 283 | 8.0 | 16.1 | 0.00 | 0.05 | 0.00 | 49 | 1011.8 |
| 20260506103044 | 13 | 252 | 4.8 | 14.5 | 0.00 | 0.05 | 0.00 | 50 | 1012.0 |
| 20260506101556 | 13 | 304 | 3.2 | 14.5 | 0.00 | 0.05 | 0.00 | 50 | 1011.9 |
| 20260506100051 | 12 | 252 | 4.8 | 11.3 | 0.00 | 0.05 | 0.00 | 50 | 1012.2 |
| 20260506094606 | 12 | 226 | 4.8 | 12.9 | 0.00 | 0.05 | 0.00 | 57 | 1012.3 |
| 20260506093055 | 11 | 315 | 4.8 | 12.9 | 0.00 | 0.05 | 0.00 | 59 | 1012.3 |
| 20260506091552 | 11 | 240 | 3.2 | 11.3 | 0.00 | 0.05 | 0.00 | 62 | 1012.3 |
| 20260506090046 | 10 | 244 | 3.2 | 8.0 | 0.00 | 0.05 | 0.00 | 62 | 1012.4 |
| 20260506084550 | 9 | 298 | 3.2 | 9.7 | 0.00 | 0.05 | 0.00 | 66 | 1012.5 |
| 20260506083057 | 7 | 190 | 0.0 | 6.4 | 0.00 | 0.05 | 0.00 | 77 | 1012.4 |
| 20260506081551 | 7 | 0 | 0.0 | 3.2 | 0.00 | 0.05 | 0.00 | 77 | 1012.5 |
| 20260506073048 | 6 | 0 | 0.0 | 3.2 | 0.00 | 0.05 | 0.00 | 85 | 1012.7 |
| 20260506071550 | 5 | 0 | 0.0 | 0.0 | 0.00 | 0.05 | 0.00 | 85 | 1012.8 |
| 20260506061544 | 5 | 98 | 0.0 | 4.8 | 0.00 | 0.05 | 0.00 | 85 | 1012.8 |
| 20260506044552 | 5 | 0 | 0.0 | 3.2 | 0.00 | 0.05 | 0.00 | 86 | 1012.1 |
| 20260506043053 | 5 | 120 | 0.0 | 1.6 | 0.00 | 0.05 | 0.00 | 86 | 1012.1 |
| 20260506041551 | 5 | 0 | 0.0 | 1.6 | 0.00 | 0.05 | 0.00 | 86 | 1012.0 |
| 20260506040059 | 5 | 0 | 0.0 | 1.6 | 0.00 | 0.05 | 0.00 | 87 | 1011.8 |
| 20260506034606 | 6 | 0 | 0.0 | 0.0 | 0.00 | 0.05 | 0.00 | 87 | 1011.8 |
| 20260506033043 | 6 | 0 | 0.0 | 3.2 | 0.00 | 0.05 | 0.00 | 87 | 1011.8 |
| 20260506031558 | 6 | 0 | 0.0 | 4.8 | 0.00 | 0.05 | 0.00 | 87 | 1011.9 |
| 20260506030052 | 5 | 302 | 0.0 | 3.2 | 0.00 | 0.05 | 0.00 | 88 | 1012.0 |
| 20260506024546 | 5 | 0 | 0.0 | 3.2 | 0.00 | 0.05 | 0.00 | 88 | 1012.0 |
| 20260506023048 | 5 | 0 | 0.0 | 0.0 | 0.00 | 0.05 | 0.00 | 88 | 1012.0 |
| 20260506021556 | 5 | 0 | 0.0 | 0.0 | 0.00 | 0.05 | 0.00 | 88 | 1012.0 |
| 20260506020047 | 6 | 0 | 0.0 | 0.0 | 0.00 | 0.05 | 0.00 | 88 | 1012.0 |
| 20260506014548 | 5 | 0 | 0.0 | 3.2 | 0.00 | 0.05 | 0.00 | 88 | 1012.1 |
| 20260506013049 | 6 | 0 | 0.0 | 1.6 | 0.00 | 0.05 | 0.00 | 88 | 1012.2 |
| 20260506011553 | 6 | 0 | 0.0 | 0.0 | 0.00 | 0.05 | 0.00 | 88 | 1012.0 |
| 20260506010048 | 6 | 0 | 0.0 | 3.2 | 0.00 | 0.05 | 0.00 | 88 | 1012.1 |
| 20260506004551 | 6 | 0 | 0.0 | 1.6 | 0.00 | 0.05 | 0.00 | 88 | 1012.2 |
| 20260506003052 | 6 | 0 | 0.0 | 0.0 | 0.00 | 0.05 | 0.00 | 88 | 1012.4 |
| 20260506001550 | 6 | 0 | 0.0 | 1.6 | 0.00 | 0.05 | 0.00 | 88 | 1012.5 |
| 20260506000055 | 6 | 0 | 0.0 | 1.6 | 0.00 | 0.05 | 0.00 | 88 | 1012.6 |
| 20260505234600 | 6 | 0 | 0.0 | 1.6 | 0.00 | 0.05 | 0.00 | 88 | 1012.6 |
| 20260505233105 | 6 | 0 | 0.0 | 1.6 | 0.00 | 0.05 | 0.00 | 87 | 1012.4 |
| 20260505231554 | 6 | 0 | 0.0 | 0.0 | 0.00 | 0.05 | 0.00 | 87 | 1012.5 |
| 20260505230051 | 6 | 0 | 0.0 | 3.2 | 0.00 | 0.05 | 0.00 | 87 | 1012.5 |
| 20260505224551 | 6 | 0 | 0.0 | 0.0 | 0.00 | 0.05 | 0.00 | 87 | 1012.6 |
| 20260505223052 | 6 | 0 | 0.0 | 1.6 | 0.00 | 0.05 | 0.00 | 87 | 1012.8 |
| 20260505221551 | 7 | 0 | 0.0 | 3.2 | 0.00 | 0.05 | 0.00 | 86 | 1012.8 |
| 20260505220052 | 7 | 0 | 0.0 | 3.2 | 0.00 | 0.05 | 0.00 | 86 | 1013.1 |
| 20260505214554 | 7 | 0 | 0.0 | 0.0 | 0.00 | 0.05 | 0.05 | 85 | 1013.1 |
| 20260505213053 | 7 | 0 | 3.2 | 4.8 | 0.00 | 0.05 | 0.05 | 85 | 1013.2 |
| 20260505211606 | 7 | 0 | 0.0 | 1.6 | 0.00 | 0.05 | 0.05 | 85 | 1013.2 |
| 20260505210052 | 7 | 0 | 0.0 | 1.6 | 0.00 | 0.05 | 0.05 | 84 | 1013.2 |
| 20260505204552 | 7 | 0 | 0.0 | 3.2 | 0.00 | 0.33 | 0.05 | 84 | 1013.0 |
| 20260505203050 | 7 | 0 | 0.0 | 1.6 | 0.00 | 0.33 | 0.05 | 83 | 1012.8 |
| 20260505201557 | 8 | 247 | 0.0 | 1.6 | 0.00 | 0.33 | 0.05 | 83 | 1012.5 |
| 20260505200051 | 8 | 0 | 0.0 | 3.2 | 0.00 | 0.33 | 0.05 | 82 | 1012.2 |
| 20260505194608 | 8 | 244 | 1.6 | 6.4 | 0.00 | 1.02 | 0.05 | 81 | 1012.3 |
| 20260505193054 | 8 | 0 | 0.0 | 0.0 | 0.00 | 1.02 | 0.05 | 82 | 1012.3 |
| 20260505191554 | 8 | 253 | 0.0 | 6.4 | 0.00 | 1.02 | 0.05 | 81 | 1012.2 |
| 20260505190050 | 8 | 281 | 3.2 | 8.0 | 0.00 | 1.02 | 0.05 | 80 | 1012.1 |
| 20260505184553 | 8 | 219 | 3.2 | 9.7 | 0.00 | 1.24 | 0.05 | 80 | 1011.8 |
| 20260505183051 | 9 | 224 | 3.2 | 9.7 | 0.00 | 1.24 | 0.05 | 78 | 1011.7 |
| 20260505181558 | 9 | 0 | 0.0 | 6.4 | 0.00 | 1.24 | 0.05 | 77 | 1011.7 |
| 20260505180051 | 9 | 248 | 0.0 | 9.7 | 0.00 | 1.24 | 0.05 | 76 | 1011.7 |
| 20260505174555 | 10 | 238 | 0.0 | 6.4 | 0.00 | 1.30 | 0.05 | 74 | 1011.7 |
| 20260505173049 | 10 | 223 | 1.6 | 4.8 | 0.00 | 1.30 | 0.05 | 73 | 1011.9 |
| 20260505171553 | 10 | 284 | 1.6 | 8.0 | 0.00 | 1.30 | 0.05 | 72 | 1012.0 |
| 20260505170054 | 11 | 263 | 1.6 | 8.0 | 0.00 | 1.30 | 0.05 | 70 | 1012.1 |
| 20260505164616 | 11 | 286 | 1.6 | 8.0 | 0.00 | 1.30 | 0.05 | 70 | 1012.5 |
| 20260505163101 | 10 | 0 | 3.2 | 12.9 | 0.05 | 1.30 | 0.05 | 74 | 1012.4 |
| 20260505161550 | 9 | 317 | 0.0 | 12.9 | 0.05 | 1.30 | 0.05 | 79 | 1012.7 |
| 20260505153054 | 11 | 265 | 6.4 | 19.3 | 0.00 | 1.35 | 0.00 | 65 | 1012.5 |
| 20260505151554 | 12 | 214 | 6.4 | 14.5 | 0.00 | 1.35 | 0.00 | 59 | 1011.8 |